createdAt,value
2022-09-18T00:02:24.338Z,17.77
2022-09-18T00:04:51.111Z,18.90
2022-09-18T00:07:17.988Z,16.40
2022-09-18T00:09:45.010Z,15.25
2022-09-18T00:12:11.992Z,17.83
2022-09-18T00:14:38.852Z,16.98
2022-09-18T00:17:09.005Z,16.00
2022-09-18T00:19:36.196Z,15.13
2022-09-18T00:22:02.963Z,18.23
2022-09-18T00:24:29.926Z,18.50
2022-09-18T00:26:56.693Z,16.60
2022-09-18T00:29:23.502Z,18.90
2022-09-18T00:31:50.630Z,17.58
2022-09-18T00:34:17.388Z,17.05
2022-09-18T00:36:44.585Z,15.90
2022-09-18T00:39:12.414Z,16.42
2022-09-18T00:41:41.915Z,19.05
2022-09-18T00:44:31.498Z,22.35
2022-09-18T00:47:07.171Z,18.48
2022-09-18T00:49:34.615Z,19.42
2022-09-18T00:52:02.463Z,17.38
2022-09-18T00:54:37.300Z,18.45
2022-09-18T00:57:27.227Z,19.58
2022-09-18T00:59:54.865Z,17.23
2022-09-18T01:02:22.080Z,17.95
2022-09-18T01:04:50.282Z,18.27
2022-09-18T01:07:29.153Z,19.48
2022-09-18T01:10:12.857Z,19.08
2022-09-18T01:13:01.190Z,18.70
2022-09-18T01:15:28.105Z,20.10
2022-09-18T01:18:05.615Z,21.42
2022-09-18T01:20:53.580Z,17.58
2022-09-18T01:23:57.678Z,20.90
2022-09-18T01:26:41.431Z,21.25
2022-09-18T01:29:28.491Z,21.85
2022-09-18T01:32:01.511Z,19.33
2022-09-18T01:34:49.915Z,14.48
2022-09-18T01:37:38.472Z,15.45
2022-09-18T01:40:17.544Z,13.07
2022-09-18T01:42:47.534Z,13.07
2022-09-18T01:45:20.305Z,11.45
2022-09-18T01:48:01.427Z,15.50
2022-09-18T01:50:32.603Z,11.02
2022-09-18T01:53:08.517Z,8.05
2022-09-18T01:55:38.548Z,8.05
2022-09-18T01:58:19.086Z,9.02
2022-09-18T02:00:51.405Z,7.68
2022-09-18T02:03:27.890Z,6.20
2022-09-18T02:06:00.627Z,5.90
2022-09-18T02:08:41.527Z,5.60
2022-09-18T02:11:13.663Z,4.20
2022-09-18T02:14:16.427Z,3.50
2022-09-18T02:16:46.522Z,4.60
2022-09-18T02:19:28.614Z,6.90
2022-09-18T02:21:58.638Z,12.10
2022-09-18T02:24:31.285Z,10.65
2022-09-18T02:27:01.798Z,13.38
2022-09-18T02:29:30.584Z,12.75
2022-09-18T02:32:00.104Z,18.08
2022-09-18T02:34:27.920Z,10.43
2022-09-18T02:37:16.203Z,9.38
2022-09-18T02:40:18.304Z,10.80
2022-09-18T02:42:59.192Z,9.20
2022-09-18T02:45:36.869Z,8.02
2022-09-18T02:48:12.599Z,6.30
2022-09-18T02:51:08.670Z,7.57
2022-09-18T02:53:51.675Z,8.80
2022-09-18T02:56:41.203Z,5.03
2022-09-18T02:59:18.055Z,5.82
2022-09-18T03:01:46.268Z,7.15
2022-09-18T03:04:19.294Z,5.57
2022-09-18T03:06:46.046Z,4.82
2022-09-18T03:09:13.714Z,7.15
2022-09-18T03:11:40.643Z,4.18
2022-09-18T03:14:07.620Z,3.30
2022-09-18T03:16:34.435Z,4.18
2022-09-18T03:19:01.575Z,6.10
2022-09-18T03:21:28.411Z,3.50
2022-09-18T03:23:55.432Z,3.15
2022-09-18T03:26:23.096Z,3.13
2022-09-18T03:28:50.029Z,2.70
2022-09-18T03:31:16.839Z,2.38
2022-09-18T03:33:43.867Z,2.80
2022-09-18T03:36:10.637Z,2.05
2022-09-18T03:38:37.886Z,3.63
2022-09-18T03:41:05.127Z,3.20
2022-09-18T03:43:31.910Z,3.22
2022-09-18T03:45:58.688Z,3.50
2022-09-18T03:48:25.643Z,2.83
2022-09-18T03:50:52.415Z,3.78
2022-09-18T03:53:19.448Z,4.55
2022-09-18T03:55:49.395Z,2.67
2022-09-18T03:58:16.561Z,4.40
2022-09-18T04:00:43.493Z,3.40
2022-09-18T04:03:10.655Z,3.28
2022-09-18T04:05:37.589Z,2.92
2022-09-18T04:08:05.356Z,5.43
2022-09-18T04:10:33.102Z,4.13
2022-09-18T04:12:59.889Z,5.13
2022-09-18T04:15:26.582Z,7.13
2022-09-18T04:17:53.504Z,4.18
2022-09-18T04:20:20.240Z,5.53
2022-09-18T04:22:47.003Z,5.32
2022-09-18T04:25:13.968Z,5.53
2022-09-18T04:27:40.687Z,7.25
2022-09-18T04:30:08.552Z,4.60
2022-09-18T04:32:35.578Z,4.10
2022-09-18T04:35:02.650Z,4.50
2022-09-18T04:37:29.472Z,4.32
2022-09-18T04:39:57.232Z,6.13
2022-09-18T04:42:24.052Z,5.18
2022-09-18T04:44:50.807Z,5.65
2022-09-18T04:47:17.767Z,6.28
2022-09-18T04:49:44.503Z,6.07
2022-09-18T04:52:11.275Z,3.65
2022-09-18T04:54:38.253Z,4.15
2022-09-18T04:57:05.412Z,5.03
2022-09-18T04:59:32.119Z,4.57
2022-09-18T05:01:59.500Z,3.88
2022-09-18T05:04:26.315Z,3.80
2022-09-18T05:06:53.128Z,3.63
2022-09-18T05:09:20.126Z,2.45
2022-09-18T05:11:47.242Z,2.50
2022-09-18T05:14:14.029Z,3.60
2022-09-18T05:16:41.110Z,3.85
2022-09-18T05:19:07.891Z,2.30
2022-09-18T05:21:34.809Z,2.15
2022-09-18T05:24:02.071Z,4.35
2022-09-18T05:26:30.435Z,2.95
2022-09-18T05:28:57.415Z,2.55
2022-09-18T05:31:24.585Z,3.90
2022-09-18T05:33:51.489Z,5.55
2022-09-18T05:36:18.223Z,5.93
2022-09-18T05:38:45.697Z,4.57
2022-09-18T05:41:12.479Z,8.10
2022-09-18T05:43:39.238Z,5.47
2022-09-18T05:46:06.607Z,6.88
2022-09-18T05:48:33.369Z,6.88
2022-09-18T05:51:00.130Z,6.20
2022-09-18T05:53:27.141Z,6.25
2022-09-18T05:55:53.932Z,8.48
2022-09-18T05:58:21.284Z,6.78
2022-09-18T06:00:48.759Z,9.25
2022-09-18T06:03:16.900Z,9.23
2022-09-18T06:05:50.889Z,10.35
2022-09-18T06:08:18.173Z,9.32
2022-09-18T06:10:45.098Z,11.35
2022-09-18T06:13:15.678Z,12.25
2022-09-18T06:15:52.381Z,11.88
2022-09-18T06:18:19.794Z,10.18
2022-09-18T06:20:55.683Z,12.52
2022-09-18T06:23:24.501Z,13.20
2022-09-18T06:26:02.807Z,12.80
2022-09-18T06:28:34.154Z,12.27
2022-09-18T06:31:03.255Z,11.73
2022-09-18T06:33:30.096Z,8.10
2022-09-18T06:35:56.881Z,6.90
2022-09-18T06:38:23.899Z,4.95
2022-09-18T06:40:54.657Z,5.63
2022-09-18T06:43:21.453Z,3.97
2022-09-18T06:45:53.196Z,4.05
2022-09-18T06:48:20.460Z,2.50
2022-09-18T06:51:13.305Z,3.13
2022-09-18T06:53:40.268Z,3.80
2022-09-18T06:56:07.012Z,1.60
2022-09-18T06:58:33.782Z,3.65
2022-09-18T07:01:01.179Z,1.70
2022-09-18T07:03:28.131Z,4.10
2022-09-18T07:05:54.983Z,1.42
2022-09-18T07:08:21.961Z,3.60
2022-09-18T07:10:48.767Z,2.00
2022-09-18T07:13:15.853Z,1.95
2022-09-18T07:15:46.663Z,1.65
2022-09-18T07:18:13.427Z,5.07
2022-09-18T07:20:40.268Z,7.68
2022-09-18T07:23:07.199Z,3.13
2022-09-18T07:25:34.699Z,3.13
2022-09-18T07:28:08.033Z,3.13
2022-09-18T07:30:36.291Z,2.58
2022-09-18T07:33:04.683Z,5.28
2022-09-18T07:35:32.865Z,3.30
2022-09-18T07:38:00.746Z,4.70
2022-09-18T07:40:28.512Z,3.78
2022-09-18T07:43:00.566Z,3.50
2022-09-18T07:45:27.783Z,4.10
2022-09-18T07:47:54.679Z,3.92
2022-09-18T07:50:23.051Z,2.50
2022-09-18T07:52:55.020Z,7.00
2022-09-18T07:55:23.135Z,5.72
2022-09-18T07:57:58.436Z,6.83
2022-09-18T08:00:26.881Z,5.13
2022-09-18T08:03:03.433Z,5.45
2022-09-18T08:05:30.880Z,5.43
2022-09-18T08:08:03.340Z,5.10
2022-09-18T08:10:30.951Z,4.05
2022-09-18T08:12:58.083Z,5.47
2022-09-18T08:15:25.131Z,8.32
2022-09-18T08:17:52.228Z,6.20
2022-09-18T08:20:19.275Z,5.63
2022-09-18T08:22:46.906Z,4.40
2022-09-18T08:25:14.801Z,3.80
2022-09-18T08:27:42.204Z,4.25
2022-09-18T08:30:12.184Z,4.00
2022-09-18T08:32:40.653Z,4.13
2022-09-18T08:35:10.987Z,3.65
2022-09-18T08:37:37.960Z,4.25
2022-09-18T08:40:05.698Z,3.33
2022-09-18T08:42:33.516Z,5.28
2022-09-18T08:45:09.245Z,5.40
2022-09-18T08:47:41.554Z,7.53
2022-09-18T08:50:24.650Z,4.32
2022-09-18T08:52:58.185Z,5.78
2022-09-18T08:55:31.116Z,6.22
2022-09-18T08:58:07.015Z,3.95
2022-09-18T09:00:55.032Z,4.80
2022-09-18T09:03:25.100Z,7.47
2022-09-18T09:05:56.455Z,3.63
2022-09-18T09:08:36.522Z,3.92
2022-09-18T09:11:03.218Z,5.00
2022-09-18T09:13:45.670Z,4.72
2022-09-18T09:16:24.049Z,5.93
2022-09-18T09:19:00.345Z,7.20
2022-09-18T09:21:39.107Z,4.32
2022-09-18T09:24:24.876Z,6.78
2022-09-18T09:26:54.013Z,7.20
2022-09-18T09:31:54.161Z,6.88
2022-09-18T09:34:44.473Z,7.07
2022-09-18T09:37:20.544Z,4.53
2022-09-18T09:39:57.251Z,4.78
2022-09-18T09:42:27.088Z,5.43
2022-09-18T09:45:02.388Z,8.35
2022-09-18T09:47:30.349Z,3.92
2022-09-18T09:50:09.083Z,3.05
2022-09-18T09:52:38.023Z,5.00
2022-09-18T09:55:07.511Z,5.53
2022-09-18T09:57:44.098Z,6.65
2022-09-18T10:00:15.560Z,5.43
2022-09-18T10:03:04.360Z,4.65
2022-09-18T10:05:31.287Z,3.97
2022-09-18T10:08:23.986Z,2.35
2022-09-18T10:11:01.420Z,2.25
2022-09-18T10:13:31.511Z,4.53
2022-09-18T10:16:03.270Z,4.53
2022-09-18T10:18:34.323Z,5.05
2022-09-18T10:21:23.931Z,5.00
2022-09-18T10:23:55.084Z,5.20
2022-09-18T10:26:28.295Z,3.50
2022-09-18T10:28:55.323Z,4.47
2022-09-18T10:31:22.248Z,7.60
2022-09-18T10:33:53.172Z,4.90
2022-09-18T10:36:42.934Z,3.65
2022-09-18T10:39:31.720Z,8.70
2022-09-18T10:42:00.492Z,3.20
2022-09-18T10:44:30.748Z,3.35
2022-09-18T10:47:10.315Z,4.07
2022-09-18T10:49:52.430Z,4.95
2022-09-18T10:52:34.486Z,5.57
2022-09-18T10:55:09.282Z,4.90
2022-09-18T10:57:47.975Z,4.53
2022-09-18T11:00:21.122Z,2.72
2022-09-18T11:02:52.882Z,3.45
2022-09-18T11:05:22.953Z,7.40
2022-09-18T11:07:56.262Z,2.88
2022-09-18T11:10:25.746Z,2.65
2022-09-18T11:12:59.003Z,4.38
2022-09-18T11:15:29.968Z,6.13
2022-09-18T11:17:59.004Z,3.70
2022-09-18T11:20:32.837Z,4.60
2022-09-18T11:23:29.009Z,3.45
2022-09-18T11:26:26.961Z,3.45
2022-09-18T11:28:59.966Z,2.53
2022-09-18T11:31:38.404Z,4.28
2022-09-18T11:34:18.434Z,3.15
2022-09-18T11:36:49.177Z,2.38
2022-09-18T11:39:24.648Z,2.75
2022-09-18T11:41:54.204Z,7.93
2022-09-18T11:44:31.629Z,4.30
2022-09-18T11:47:13.622Z,6.93
2022-09-18T11:49:49.554Z,3.78
2022-09-18T11:52:43.490Z,3.15
2022-09-18T11:55:17.521Z,4.05
2022-09-18T11:57:59.354Z,7.20
2022-09-18T12:00:32.444Z,6.03
2022-09-18T12:03:17.088Z,5.20
2022-09-18T12:06:04.292Z,4.25
2022-09-18T12:08:41.953Z,4.93
2022-09-18T12:11:21.078Z,5.43
2022-09-18T12:14:20.279Z,3.97
2022-09-18T12:16:59.143Z,4.85
2022-09-18T12:19:30.362Z,4.80
2022-09-18T12:22:11.432Z,5.47
2022-09-18T12:24:38.394Z,4.85
2022-09-18T12:27:28.814Z,14.90
2022-09-18T12:30:30.457Z,12.85
2022-09-18T12:33:09.597Z,6.95
2022-09-18T12:36:04.804Z,4.40
2022-09-18T12:38:31.744Z,4.10
2022-09-18T12:41:41.974Z,5.18
2022-09-18T12:44:18.597Z,3.13
2022-09-18T12:46:56.895Z,5.75
2022-09-18T12:49:32.690Z,4.32
2022-09-18T12:52:31.535Z,6.18
2022-09-18T12:55:40.408Z,5.82
2022-09-18T12:58:32.123Z,5.60
2022-09-18T13:01:03.871Z,5.05
2022-09-18T13:03:35.250Z,2.97
2022-09-18T13:06:07.597Z,3.03
2022-09-18T13:09:01.900Z,5.90
2022-09-18T13:11:58.762Z,2.13
2022-09-18T13:15:01.057Z,2.50
2022-09-18T13:17:48.795Z,2.55
2022-09-18T13:20:40.391Z,2.83
2022-09-18T13:23:33.515Z,4.70
2022-09-18T13:26:02.571Z,2.47
2022-09-18T13:28:29.841Z,2.10
2022-09-18T13:31:14.966Z,2.05
2022-09-18T13:34:04.381Z,2.50
2022-09-18T13:39:05.249Z,2.70
2022-09-18T13:41:49.248Z,1.77
2022-09-18T13:44:30.824Z,2.42
2022-09-18T13:47:10.037Z,2.53
2022-09-18T13:49:47.282Z,4.80
2022-09-18T13:52:32.896Z,2.35
2022-09-18T13:55:13.151Z,4.85
2022-09-18T13:57:41.505Z,4.22
2022-09-18T14:00:20.843Z,2.75
2022-09-18T14:02:49.448Z,2.92
2022-09-18T14:05:29.672Z,3.83
2022-09-18T14:08:27.104Z,6.22
2022-09-18T14:11:15.816Z,2.60
2022-09-18T14:13:46.346Z,1.90
2022-09-18T14:16:19.349Z,3.63
2022-09-18T14:18:49.160Z,3.17
2022-09-18T14:21:19.084Z,2.58
2022-09-18T14:23:48.499Z,2.97
2022-09-18T14:26:39.679Z,5.47
2022-09-18T14:29:19.483Z,2.45
2022-09-18T14:31:47.225Z,2.05
2022-09-18T14:34:38.036Z,2.17
2022-09-18T14:56:36.605Z,2.83
2022-09-18T14:59:07.061Z,3.20
2022-09-18T15:01:38.586Z,2.00
2022-09-18T15:04:11.650Z,4.50
2022-09-18T15:06:44.159Z,8.05
2022-09-18T15:09:15.210Z,3.67
2022-09-18T15:12:01.832Z,6.72
2022-09-18T15:14:42.752Z,4.68
2022-09-18T15:17:27.945Z,5.75
2022-09-18T15:20:16.254Z,3.72
2022-09-18T15:22:43.722Z,3.83
2022-09-18T15:25:15.271Z,2.78
2022-09-18T15:27:44.268Z,2.40
2022-09-18T15:30:20.046Z,2.88
2022-09-18T15:33:05.090Z,2.28
2022-09-18T15:35:35.416Z,3.97
2022-09-18T15:38:05.710Z,2.97
2022-09-18T15:40:35.964Z,2.67
2022-09-18T15:43:07.914Z,1.92
2022-09-18T15:45:36.903Z,4.15
2022-09-18T15:48:35.354Z,2.13
2022-09-18T15:51:23.201Z,1.88
2022-09-18T15:54:09.210Z,2.28
2022-09-18T15:56:39.669Z,1.85
2022-09-18T15:59:16.575Z,2.63
2022-09-18T16:01:49.920Z,1.67
2022-09-18T16:04:24.311Z,2.28
2022-09-18T16:07:00.373Z,6.03
2022-09-18T16:09:41.157Z,30.73
2022-09-18T16:12:30.783Z,19.95
2022-09-18T16:15:20.210Z,10.45
2022-09-18T16:20:38.309Z,8.45
2022-09-18T16:23:11.086Z,7.03
2022-09-18T16:25:41.569Z,4.95
2022-09-18T16:28:24.572Z,3.70
2022-09-18T16:30:52.242Z,3.45
2022-09-18T16:33:22.407Z,3.67
2022-09-18T16:36:03.154Z,3.03
2022-09-18T16:38:31.294Z,2.30
2022-09-18T16:40:58.474Z,4.68
2022-09-18T16:43:25.421Z,3.67
2022-09-18T16:45:52.691Z,6.53
2022-09-18T16:48:19.858Z,16.95
2022-09-18T16:50:48.114Z,5.82
2022-09-18T16:53:15.252Z,4.25
2022-09-18T16:55:49.711Z,2.28
2022-09-18T16:58:19.180Z,4.68
2022-09-18T17:00:46.383Z,4.30
2022-09-18T17:03:13.420Z,6.07
2022-09-18T17:05:41.540Z,30.50
2022-09-18T17:08:08.659Z,86.47
2022-09-18T17:10:36.016Z,28.73
2022-09-18T17:13:04.596Z,87.00
2022-09-18T17:15:31.670Z,16.73
2022-09-18T17:17:58.520Z,5.43
2022-09-18T17:20:25.342Z,7.07
2022-09-18T17:22:53.136Z,2.83
2022-09-18T17:25:20.060Z,3.67
2022-09-18T17:27:49.914Z,2.90
2022-09-18T17:30:17.498Z,8.38
2022-09-18T17:32:44.349Z,3.80
2022-09-18T17:35:11.068Z,3.80
2022-09-18T17:37:38.056Z,5.90
2022-09-18T17:40:05.277Z,6.07
2022-09-18T17:42:32.126Z,8.20
2022-09-18T17:44:59.219Z,11.45
2022-09-18T17:47:26.058Z,6.90
2022-09-18T17:49:53.904Z,4.25
2022-09-18T17:52:20.937Z,5.15
2022-09-18T17:54:47.723Z,5.60
2022-09-18T17:57:14.490Z,4.73
2022-09-18T17:59:44.105Z,7.65
2022-09-18T18:02:13.097Z,6.05
2022-09-18T18:04:40.301Z,5.38
2022-09-18T18:07:07.311Z,4.75
2022-09-18T18:09:37.610Z,7.80
2022-09-18T18:12:05.509Z,4.35
2022-09-18T18:14:34.960Z,5.77
2022-09-18T18:17:01.911Z,4.30
2022-09-18T18:19:28.861Z,4.47
2022-09-18T18:21:56.000Z,3.72
2022-09-18T18:24:23.901Z,3.42
2022-09-18T18:26:50.895Z,2.78
2022-09-18T18:29:19.417Z,4.07
2022-09-18T18:31:49.180Z,2.13
2022-09-18T18:34:21.101Z,3.75
2022-09-18T18:36:50.303Z,4.97
2022-09-18T18:39:19.946Z,3.30
2022-09-18T18:41:47.299Z,6.90
2022-09-18T18:44:14.818Z,5.45
2022-09-18T18:46:42.668Z,2.17
2022-09-18T18:49:12.625Z,3.33
2022-09-18T18:51:47.622Z,2.10
2022-09-18T18:54:21.957Z,2.47
2022-09-18T18:56:49.726Z,2.90
2022-09-18T18:59:18.948Z,2.20
2022-09-18T19:01:47.480Z,2.55
2022-09-18T19:04:19.292Z,1.60
2022-09-18T19:06:46.711Z,2.80
2022-09-18T19:09:22.578Z,2.53
2022-09-18T19:11:51.057Z,2.58
2022-09-18T19:14:26.110Z,2.03
2022-09-18T19:16:54.655Z,2.20
2022-09-18T19:19:23.780Z,2.67
2022-09-18T19:21:51.363Z,1.63
2022-09-18T19:24:18.708Z,1.80
2022-09-18T19:26:47.111Z,2.97
2022-09-18T19:29:17.928Z,3.17
2022-09-18T19:31:46.532Z,3.00
2022-09-18T19:34:15.801Z,2.07
2022-09-18T19:36:46.747Z,2.25
2022-09-18T19:39:14.455Z,3.28
2022-09-18T19:41:59.316Z,3.03
2022-09-18T19:44:34.293Z,1.80
2022-09-18T19:47:14.634Z,1.60
2022-09-18T19:49:41.710Z,2.85
2022-09-18T19:52:25.592Z,3.28
2022-09-18T19:54:54.587Z,4.80
2022-09-18T19:57:23.215Z,3.97
2022-09-18T19:59:55.243Z,2.58
2022-09-18T20:02:24.213Z,4.53
2022-09-18T20:04:51.274Z,5.50
2022-09-18T20:07:18.171Z,2.42
2022-09-18T20:09:45.162Z,4.70
2022-09-18T20:12:12.802Z,7.25
2022-09-18T20:14:39.673Z,6.97
2022-09-18T20:17:06.990Z,3.58
2022-09-18T20:19:34.513Z,5.45
2022-09-18T20:22:02.837Z,4.63
2022-09-18T20:24:31.383Z,6.63
2022-09-18T20:26:59.514Z,7.27
2022-09-18T20:29:27.529Z,7.57
2022-09-18T20:31:54.969Z,4.47
2022-09-18T20:34:24.842Z,6.45
2022-09-18T20:36:52.272Z,6.50
2022-09-18T20:39:19.515Z,8.70
2022-09-18T20:41:46.571Z,10.32
2022-09-18T20:44:13.986Z,10.15
2022-09-18T20:46:42.508Z,5.82
2022-09-18T20:49:10.768Z,5.63
2022-09-18T20:51:37.500Z,8.02
2022-09-18T20:54:09.198Z,7.07
2022-09-18T20:56:44.675Z,9.80
2022-09-18T20:59:16.160Z,9.73
2022-09-18T21:01:44.312Z,7.90
2022-09-18T21:04:17.119Z,9.57
2022-09-18T21:06:48.775Z,10.65
2022-09-18T21:09:15.763Z,11.68
2022-09-18T21:11:44.792Z,11.07
2022-09-18T21:14:14.863Z,9.55
2022-09-18T21:16:43.072Z,5.97
2022-09-18T21:19:12.057Z,7.57
2022-09-18T21:21:39.613Z,6.53
2022-09-18T21:24:08.819Z,6.95
2022-09-18T21:26:46.798Z,7.22
2022-09-18T21:29:17.770Z,7.97
2022-09-18T21:31:46.000Z,9.02
2022-09-18T21:34:24.414Z,9.07
2022-09-18T21:37:01.807Z,5.13
2022-09-18T21:39:29.966Z,9.80
2022-09-18T21:41:58.759Z,8.60
2022-09-18T21:44:27.563Z,7.68
2022-09-18T21:47:00.032Z,7.70
2022-09-18T21:49:29.139Z,11.20
2022-09-18T21:52:07.685Z,11.43
2022-09-18T21:54:35.218Z,11.65
2022-09-18T21:57:02.003Z,7.13
2022-09-18T21:59:30.665Z,6.05
2022-09-18T22:01:59.020Z,7.68
2022-09-18T22:04:28.346Z,6.55
2022-09-18T22:09:32.814Z,8.57
2022-09-18T22:12:01.336Z,5.80
2022-09-18T22:14:32.432Z,9.27
2022-09-18T22:17:04.531Z,7.38
2022-09-18T22:19:33.388Z,9.02
2022-09-18T22:22:01.486Z,7.72
2022-09-18T22:24:29.207Z,5.18
2022-09-18T22:27:00.019Z,7.45
2022-09-18T22:29:34.365Z,5.87
2022-09-18T22:32:01.713Z,4.82
2022-09-18T22:34:31.242Z,5.25
2022-09-18T22:37:00.905Z,8.63
2022-09-18T22:39:28.781Z,7.53
2022-09-18T22:41:55.972Z,6.13
2022-09-18T22:44:22.919Z,4.13
2022-09-18T22:46:55.049Z,5.63
2022-09-18T22:49:23.335Z,5.67
2022-09-18T22:51:50.759Z,9.87
2022-09-18T22:54:23.913Z,4.07
2022-09-18T22:56:52.349Z,5.15
2022-09-18T22:59:21.941Z,5.55
2022-09-18T23:01:53.933Z,5.63
2022-09-18T23:04:23.630Z,5.30
2022-09-18T23:06:51.086Z,9.43
2022-09-18T23:09:19.270Z,5.33
2022-09-18T23:11:49.140Z,6.75
2022-09-18T23:14:18.653Z,6.47
2022-09-18T23:16:45.597Z,6.90
2022-09-18T23:19:26.119Z,7.30
2022-09-18T23:21:53.981Z,6.07
2022-09-18T23:24:22.469Z,4.07
2022-09-18T23:26:51.550Z,4.20
2022-09-18T23:29:21.195Z,7.85
2022-09-18T23:31:54.205Z,7.23
2022-09-18T23:34:23.560Z,5.57
2022-09-18T23:36:53.273Z,7.67
2022-09-18T23:39:27.010Z,4.30
2022-09-18T23:41:56.141Z,4.50
2022-09-18T23:44:23.598Z,5.20
2022-09-18T23:46:51.124Z,6.67
2022-09-18T23:49:23.762Z,10.00
2022-09-18T23:51:54.067Z,3.63
2022-09-18T23:54:28.577Z,6.83
2022-09-18T23:56:55.860Z,4.87
2022-09-18T23:59:24.688Z,8.87
